Time;durP1;ratioP1;P1;durP2;ratioP2;P2;SDS_P1;SDS_P2;PMS_P1;PMS_P2;Temp;Humidity;BMP_temperature;BMP_pressure;BME280_temperature;BME280_humidity;BME280_pressure;Samples;Min_cycle;Max_cycle;Signal;HPM_P1;HPM_P2
2023/03/10 00:01:15;;;;;;;26.80;11.65;;;;;;;;;;5064274;28;20099;-52
2023/03/10 00:03:40;;;;;;;20.30;10.75;;;;;;;;;;5064404;28;20036;-51
2023/03/10 00:06:06;;;;;;;22.30;10.20;;;;;;;;;;5064451;28;20024;-50
2023/03/10 00:08:32;;;;;;;26.85;11.90;;;;;;;;;;5064303;28;20021;-49
2023/03/10 00:10:57;;;;;;;26.90;11.45;;;;;;;;;;5063985;28;20405;-50
2023/03/10 00:13:22;;;;;;;28.02;12.75;;;;;;;;;;5063773;28;20353;-52
2023/03/10 00:15:48;;;;;;;26.52;12.30;;;;;;;;;;5064144;28;20024;-50
2023/03/10 00:18:13;;;;;;;29.23;13.40;;;;;;;;;;5064583;28;20523;-48
2023/03/10 00:20:38;;;;;;;25.27;13.52;;;;;;;;;;5063774;28;20048;-52
2023/03/10 00:23:04;;;;;;;24.45;11.80;;;;;;;;;;5064111;28;20546;-52
2023/03/10 00:25:29;;;;;;;24.33;9.95;;;;;;;;;;5064022;28;20016;-49
2023/03/10 00:27:54;;;;;;;22.48;10.38;;;;;;;;;;5065296;28;20020;-50
2023/03/10 00:30:19;;;;;;;20.67;10.45;;;;;;;;;;5066645;28;20111;-47
2023/03/10 00:32:45;;;;;;;19.52;9.80;;;;;;;;;;5067464;28;20035;-51
2023/03/10 00:35:10;;;;;;;24.92;11.55;;;;;;;;;;5067880;28;20107;-49
2023/03/10 00:37:37;;;;;;;22.80;12.02;;;;;;;;;;5068000;28;20029;-52
2023/03/10 00:40:03;;;;;;;20.67;10.07;;;;;;;;;;5066401;28;20383;-52
2023/03/10 00:42:29;;;;;;;26.20;11.45;;;;;;;;;;5066296;28;20016;-48
2023/03/10 00:44:54;;;;;;;22.25;10.65;;;;;;;;;;5067234;28;20055;-49
2023/03/10 00:47:19;;;;;;;19.88;9.88;;;;;;;;;;5067373;28;20044;-51
2023/03/10 00:49:46;;;;;;;22.85;10.23;;;;;;;;;;5067593;28;20028;-47
2023/03/10 00:52:11;;;;;;;24.58;11.60;;;;;;;;;;5067260;28;20027;-50
2023/03/10 00:54:38;;;;;;;28.15;12.68;;;;;;;;;;5067338;28;20025;-52
2023/03/10 00:57:04;;;;;;;24.40;11.65;;;;;;;;;;5067285;28;20461;-49
2023/03/10 00:59:29;;;;;;;35.40;13.52;;;;;;;;;;5067160;28;20036;-47
2023/03/10 01:01:54;;;;;;;29.15;12.43;;;;;;;;;;5067502;28;20016;-50
2023/03/10 01:04:19;;;;;;;26.33;12.50;;;;;;;;;;5067430;28;20182;-45
2023/03/10 01:06:46;;;;;;;27.85;11.50;;;;;;;;;;5067332;28;20024;-49
2023/03/10 01:09:12;;;;;;;24.15;11.68;;;;;;;;;;5067512;28;20020;-49
2023/03/10 01:11:37;;;;;;;22.02;11.35;;;;;;;;;;5067247;28;20439;-50
2023/03/10 01:14:03;;;;;;;23.55;11.68;;;;;;;;;;5067372;28;20024;-52
2023/03/10 01:16:29;;;;;;;25.42;11.77;;;;;;;;;;5066652;28;20028;-50
2023/03/10 01:18:54;;;;;;;29.67;12.23;;;;;;;;;;5066774;28;20028;-49
2023/03/10 01:21:23;;;;;;;25.85;11.52;;;;;;;;;;5066837;28;20024;-49
2023/03/10 01:23:48;;;;;;;;;;;;;;;;;;5067288;28;20029;-51
2023/03/10 01:26:14;;;;;;;25.42;12.35;;;;;;;;;;5067022;28;19909;-47
2023/03/10 01:28:39;;;;;;;27.45;12.95;;;;;;;;;;5066816;28;20021;-48
2023/03/10 01:31:06;;;;;;;25.48;12.10;;;;;;;;;;5067156;28;20028;-49
2023/03/10 01:33:32;;;;;;;25.83;11.57;;;;;;;;;;5066510;28;20069;-48
2023/03/10 01:35:57;;;;;;;25.90;11.70;;;;;;;;;;5066699;28;20031;-50
2023/03/10 01:38:23;;;;;;;20.20;10.43;;;;;;;;;;5065970;28;20021;-47
2023/03/10 01:40:49;;;;;;;26.33;11.15;;;;;;;;;;5066204;28;20080;-47
2023/03/10 01:43:20;;;;;;;20.40;9.35;;;;;;;;;;5066839;28;20031;-49
2023/03/10 01:45:46;;;;;;;19.83;9.07;;;;;;;;;;5066553;28;20052;-49
2023/03/10 01:48:12;;;;;;;16.50;8.00;;;;;;;;;;5066915;28;20017;-50
2023/03/10 01:50:37;;;;;;;18.95;8.50;;;;;;;;;;5066760;28;20025;-49
2023/03/10 01:53:03;;;;;;;19.55;8.95;;;;;;;;;;5065131;28;20062;-49
2023/03/10 01:55:36;;;;;;;22.30;9.57;;;;;;;;;;5066089;28;20032;-50
2023/03/10 01:58:02;;;;;;;16.23;7.88;;;;;;;;;;5043146;28;20076;-48
2023/03/10 02:00:28;;;;;;;13.85;8.05;;;;;;;;;;5043076;28;20556;-51
2023/03/10 02:03:06;;;;;;;16.75;8.02;;;;;;;;;;5043395;28;20418;-50
2023/03/10 02:05:32;;;;;;;13.70;7.53;;;;;;;;;;5043506;28;20021;-47
2023/03/10 02:07:58;;;;;;;16.95;7.60;;;;;;;;;;5043309;28;20080;-46
2023/03/10 02:10:23;;;;;;;21.00;8.18;;;;;;;;;;5026285;28;20094;-51
2023/03/10 02:12:48;;;;;;;16.02;7.57;;;;;;;;;;5043172;28;20017;-49
2023/03/10 02:15:14;;;;;;;15.10;7.90;;;;;;;;;;5026487;28;20071;-47
2023/03/10 02:17:39;;;;;;;13.85;6.85;;;;;;;;;;5043009;28;20432;-48
2023/03/10 02:20:05;;;;;;;13.98;7.18;;;;;;;;;;5042939;28;20443;-48
2023/03/10 02:22:31;;;;;;;12.88;6.55;;;;;;;;;;5043162;28;20033;-48
2023/03/10 02:24:56;;;;;;;21.58;8.13;;;;;;;;;;5043151;28;20032;-50
2023/03/10 02:27:23;;;;;;;20.98;7.45;;;;;;;;;;5042869;28;20032;-50
2023/03/10 02:30:00;;;;;;;16.05;6.82;;;;;;;;;;5043060;28;20477;-49
2023/03/10 02:32:27;;;;;;;15.45;6.45;;;;;;;;;;5042860;28;20029;-47
2023/03/10 02:34:53;;;;;;;14.30;6.60;;;;;;;;;;5048468;28;20029;-48
2023/03/10 02:37:19;;;;;;;13.40;6.68;;;;;;;;;;5062899;28;20470;-48
2023/03/10 02:39:44;;;;;;;13.20;6.10;;;;;;;;;;5065533;28;20541;-49
2023/03/10 02:42:10;;;;;;;12.43;5.90;;;;;;;;;;5065693;28;20016;-52
2023/03/10 02:44:37;;;;;;;10.55;5.68;;;;;;;;;;5065268;28;20049;-52
2023/03/10 02:47:02;;;;;;;12.77;5.93;;;;;;;;;;5065383;28;20407;-52
2023/03/10 02:49:27;;;;;;;11.73;6.15;;;;;;;;;;5065272;28;20033;-50
2023/03/10 02:51:54;;;;;;;14.15;5.82;;;;;;;;;;5065036;28;20115;-51
2023/03/10 02:54:19;;;;;;;11.82;5.78;;;;;;;;;;5065453;28;20044;-48
2023/03/10 02:56:45;;;;;;;9.80;6.13;;;;;;;;;;5065250;28;20071;-50
2023/03/10 02:59:11;;;;;;;15.35;7.70;;;;;;;;;;5065350;28;20033;-49
2023/03/10 03:01:36;;;;;;;12.73;6.53;;;;;;;;;;5065105;28;20285;-49
2023/03/10 03:04:02;;;;;;;19.95;7.50;;;;;;;;;;5064118;28;20044;-51
2023/03/10 03:06:28;;;;;;;14.55;6.78;;;;;;;;;;5065355;28;20078;-51
2023/03/10 03:08:53;;;;;;;15.23;7.18;;;;;;;;;;5064886;28;20530;-53
2023/03/10 03:11:18;;;;;;;11.32;6.03;;;;;;;;;;5064725;28;20082;-52
2023/03/10 03:13:44;;;;;;;12.73;6.03;;;;;;;;;;5064754;28;20108;-49
2023/03/10 03:16:09;;;;;;;11.27;6.07;;;;;;;;;;5065012;28;20655;-48
2023/03/10 03:18:34;;;;;;;8.38;5.97;;;;;;;;;;5064687;28;20023;-50
2023/03/10 03:21:07;;;;;;;13.55;5.63;;;;;;;;;;5065014;28;20858;-49
2023/03/10 03:23:33;;;;;;;12.10;6.63;;;;;;;;;;5064840;28;20542;-51
2023/03/10 03:25:58;;;;;;;14.00;7.00;;;;;;;;;;5064779;28;20396;-48
2023/03/10 03:28:24;;;;;;;11.27;6.35;;;;;;;;;;5064503;28;20025;-48
2023/03/10 03:30:49;;;;;;;15.95;7.88;;;;;;;;;;5064773;28;20039;-49
2023/03/10 03:33:14;;;;;;;16.42;8.38;;;;;;;;;;5064891;28;20107;-49
2023/03/10 03:35:41;;;;;;;12.55;6.95;;;;;;;;;;5064510;28;20456;-50
2023/03/10 03:38:07;;;;;;;21.17;8.48;;;;;;;;;;5064653;28;20086;-46
2023/03/10 03:40:33;;;;;;;17.98;8.27;;;;;;;;;;5064667;28;20016;-53
2023/03/10 03:42:59;;;;;;;13.18;7.18;;;;;;;;;;5065021;28;20031;-53
2023/03/10 03:45:26;;;;;;;15.93;8.55;;;;;;;;;;5064242;28;20061;-49
2023/03/10 03:47:51;;;;;;;12.65;7.20;;;;;;;;;;5064577;28;20017;-48
2023/03/10 03:50:17;;;;;;;15.60;7.80;;;;;;;;;;5064734;28;20016;-49
2023/03/10 03:52:43;;;;;;;16.02;8.50;;;;;;;;;;5064558;28;20482;-49
2023/03/10 03:55:10;;;;;;;16.98;8.80;;;;;;;;;;5064267;28;20025;-47
2023/03/10 03:57:35;;;;;;;18.77;9.27;;;;;;;;;;5064506;28;20051;-49
2023/03/10 04:00:06;;;;;;;16.58;8.98;;;;;;;;;;5064242;28;20369;-49
2023/03/10 04:02:31;;;;;;;22.23;9.75;;;;;;;;;;5066905;28;20087;-51
2023/03/10 04:04:56;;;;;;;21.30;9.20;;;;;;;;;;5068169;28;20084;-50
2023/03/10 04:07:22;;;;;;;17.50;8.27;;;;;;;;;;5068501;28;20517;-48
2023/03/10 04:09:47;;;;;;;17.05;8.75;;;;;;;;;;5065644;28;20028;-53
2023/03/10 04:12:12;;;;;;;15.52;8.65;;;;;;;;;;5068097;28;20448;-50
2023/03/10 04:14:38;;;;;;;16.60;8.48;;;;;;;;;;5068397;28;20017;-48
2023/03/10 04:17:03;;;;;;;18.70;9.98;;;;;;;;;;5068157;28;20032;-47
2023/03/10 04:19:29;;;;;;;19.23;9.60;;;;;;;;;;5067737;28;20507;-49
2023/03/10 04:21:54;;;;;;;17.58;9.02;;;;;;;;;;5067710;28;20020;-48
2023/03/10 04:24:19;;;;;;;19.15;9.23;;;;;;;;;;5065459;28;20048;-49
2023/03/10 04:26:45;;;;;;;15.85;7.40;;;;;;;;;;5067928;28;20028;-53
2023/03/10 04:29:10;;;;;;;16.13;8.38;;;;;;;;;;5068244;28;20111;-52
2023/03/10 04:31:35;;;;;;;12.50;7.10;;;;;;;;;;5067768;28;20086;-51
2023/03/10 04:34:01;;;;;;;16.83;7.63;;;;;;;;;;5067643;28;20520;-49
2023/03/10 04:36:26;;;;;;;15.48;7.68;;;;;;;;;;5067629;28;20511;-49
2023/03/10 04:38:51;;;;;;;12.80;7.40;;;;;;;;;;5066250;28;20035;-50
2023/03/10 04:41:17;;;;;;;14.82;8.23;;;;;;;;;;5067589;28;20031;-50
2023/03/10 04:43:42;;;;;;;17.70;8.63;;;;;;;;;;5064784;28;20102;-51
2023/03/10 04:46:07;;;;;;;17.55;9.57;;;;;;;;;;5067413;28;20443;-48
2023/03/10 04:48:33;;;;;;;17.10;7.93;;;;;;;;;;5067383;28;20433;-50
2023/03/10 04:51:00;;;;;;;20.48;9.23;;;;;;;;;;5067308;28;20131;-49
2023/03/10 04:53:26;;;;;;;17.27;9.77;;;;;;;;;;5067212;28;20029;-50
2023/03/10 04:55:51;;;;;;;20.60;9.43;;;;;;;;;;5067512;28;20082;-51
2023/03/10 04:58:17;;;;;;;21.83;9.90;;;;;;;;;;5081288;28;20052;-53
2023/03/10 05:00:42;;;;;;;17.70;10.25;;;;;;;;;;5067487;28;20025;-50
2023/03/10 05:03:08;;;;;;;23.98;11.00;;;;;;;;;;5067154;28;20044;-49
2023/03/10 05:05:33;;;;;;;22.20;11.48;;;;;;;;;;5064530;28;20400;-51
2023/03/10 05:07:59;;;;;;;20.63;12.00;;;;;;;;;;5067438;28;20021;-49
2023/03/10 05:10:24;;;;;;;23.55;12.38;;;;;;;;;;5067383;28;20110;-48
2023/03/10 05:12:49;;;;;;;21.50;11.65;;;;;;;;;;5063916;28;20055;-50
2023/03/10 05:15:15;;;;;;;22.98;11.73;;;;;;;;;;5066616;28;20070;-51
2023/03/10 05:17:40;;;;;;;26.25;12.90;;;;;;;;;;5067178;28;20527;-53
2023/03/10 05:20:08;;;;;;;25.58;13.25;;;;;;;;;;5080684;28;20037;-49
2023/03/10 05:22:33;;;;;;;36.75;15.15;;;;;;;;;;5067078;28;20396;-47
2023/03/10 05:24:58;;;;;;;33.67;14.35;;;;;;;;;;5066874;28;20052;-48
2023/03/10 05:27:23;;;;;;;29.05;14.65;;;;;;;;;;5067082;28;20039;-53
2023/03/10 05:29:49;;;;;;;26.08;14.45;;;;;;;;;;5067159;28;20017;-49
2023/03/10 05:32:14;;;;;;;26.30;13.57;;;;;;;;;;5067285;28;20016;-52
2023/03/10 05:34:39;;;;;;;32.50;14.48;;;;;;;;;;5066938;28;20017;-48
2023/03/10 05:37:05;;;;;;;29.83;15.18;;;;;;;;;;5066556;28;20028;-50
2023/03/10 05:39:30;;;;;;;30.55;14.00;;;;;;;;;;5066723;28;20039;-51
2023/03/10 05:41:56;;;;;;;27.73;13.20;;;;;;;;;;5066458;28;20036;-52
2023/03/10 05:44:21;;;;;;;28.08;12.73;;;;;;;;;;5066447;28;20020;-52
2023/03/10 05:46:46;;;;;;;20.70;13.02;;;;;;;;;;5066390;28;20629;-49
2023/03/10 05:49:12;;;;;;;23.95;12.65;;;;;;;;;;5066466;28;20313;-47
2023/03/10 05:51:37;;;;;;;36.45;15.40;;;;;;;;;;5066124;28;20040;-48
2023/03/10 05:54:04;;;;;;;25.73;13.32;;;;;;;;;;5066776;28;20078;-51
2023/03/10 05:56:30;;;;;;;24.75;13.60;;;;;;;;;;5066445;28;20020;-51
2023/03/10 05:58:55;;;;;;;24.48;13.35;;;;;;;;;;5066437;28;20528;-49
2023/03/10 06:01:21;;;;;;;20.00;11.65;;;;;;;;;;5066267;28;20021;-47
2023/03/10 06:03:46;;;;;;;21.42;13.32;;;;;;;;;;5066232;28;20048;-50
2023/03/10 06:06:12;;;;;;;21.65;10.43;;;;;;;;;;5066212;28;20020;-50
2023/03/10 06:08:37;;;;;;;20.52;10.80;;;;;;;;;;5065892;28;20024;-48
2023/03/10 06:11:03;;;;;;;21.75;11.48;;;;;;;;;;5065953;28;20480;-56
2023/03/10 06:13:30;;;;;;;25.45;12.85;;;;;;;;;;5066174;28;20204;-51
2023/03/10 06:15:56;;;;;;;32.42;13.88;;;;;;;;;;5066363;28;20027;-49
2023/03/10 06:18:21;;;;;;;28.65;13.90;;;;;;;;;;5066051;28;20039;-50
2023/03/10 06:20:47;;;;;;;39.05;16.85;;;;;;;;;;5065423;28;20020;-49
2023/03/10 06:23:13;;;;;;;42.67;17.52;;;;;;;;;;5066231;28;20507;-48
2023/03/10 06:25:38;;;;;;;37.80;16.42;;;;;;;;;;5064651;28;20471;-51
2023/03/10 06:28:04;;;;;;;41.30;18.45;;;;;;;;;;5065741;28;20035;-49
2023/03/10 06:30:29;;;;;;;52.88;19.20;;;;;;;;;;5065615;28;20514;-50
2023/03/10 06:32:54;;;;;;;44.50;16.58;;;;;;;;;;5066118;28;20091;-50
2023/03/10 06:35:20;;;;;;;37.10;16.77;;;;;;;;;;5065284;28;20384;-48
2023/03/10 06:37:45;;;;;;;30.75;14.20;;;;;;;;;;5065980;28;20025;-47
2023/03/10 06:40:12;;;;;;;28.65;12.52;;;;;;;;;;5063062;28;20013;-48
2023/03/10 06:42:41;;;;;;;23.20;12.18;;;;;;;;;;5063416;28;20028;-49
2023/03/10 06:45:07;;;;;;;29.25;11.93;;;;;;;;;;5044172;28;20055;-48
2023/03/10 06:47:32;;;;;;;24.67;12.95;;;;;;;;;;5059331;28;20021;-53
2023/03/10 06:49:59;;;;;;;28.15;12.02;;;;;;;;;;5056429;28;20110;-48
2023/03/10 06:52:24;;;;;;;20.05;10.95;;;;;;;;;;5074339;28;20032;-52
2023/03/10 06:54:49;;;;;;;19.42;11.25;;;;;;;;;;5046506;28;20559;-48
2023/03/10 06:57:15;;;;;;;22.67;12.18;;;;;;;;;;5059346;28;20017;-50
2023/03/10 06:59:40;;;;;;;23.70;11.07;;;;;;;;;;5052343;28;21210;-47
2023/03/10 07:02:06;;;;;;;24.33;11.52;;;;;;;;;;5058299;28;20106;-49
2023/03/10 07:04:31;;;;;;;22.88;11.80;;;;;;;;;;5057031;28;20514;-48
2023/03/10 07:06:56;;;;;;;22.08;12.10;;;;;;;;;;5060356;28;20033;-47
2023/03/10 07:09:21;;;;;;;19.88;11.27;;;;;;;;;;5064444;28;20036;-51
2023/03/10 07:11:47;;;;;;;19.92;12.35;;;;;;;;;;5064909;28;20044;-48
2023/03/10 07:14:12;;;;;;;22.00;11.65;;;;;;;;;;5064833;28;20037;-49
2023/03/10 07:16:38;;;;;;;25.23;11.68;;;;;;;;;;5066241;28;20070;-48
2023/03/10 07:19:03;;;;;;;21.50;10.48;;;;;;;;;;5060096;28;20112;-48
2023/03/10 07:21:28;;;;;;;20.73;10.43;;;;;;;;;;5054792;28;20020;-48
2023/03/10 07:23:53;;;;;;;23.25;11.05;;;;;;;;;;5060743;28;20037;-52
2023/03/10 07:26:19;;;;;;;27.65;12.32;;;;;;;;;;5055935;28;20037;-47
2023/03/10 07:28:44;;;;;;;23.95;11.55;;;;;;;;;;5060122;28;20082;-46
2023/03/10 07:31:11;;;;;;;18.88;10.25;;;;;;;;;;5063894;28;20021;-47
2023/03/10 07:33:37;;;;;;;22.42;11.75;;;;;;;;;;5081011;28;20108;-49
2023/03/10 07:36:07;;;;;;;15.35;7.60;;;;;;;;;;5084091;28;20028;-52
2023/03/10 07:38:32;;;;;;;15.43;7.60;;;;;;;;;;5084349;28;20536;-51
2023/03/10 07:40:58;;;;;;;15.68;7.63;;;;;;;;;;5084436;28;20103;-51
2023/03/10 07:43:23;;;;;;;20.02;8.93;;;;;;;;;;5077346;28;20431;-52
2023/03/10 07:45:48;;;;;;;14.52;7.53;;;;;;;;;;5061804;28;20416;-48
2023/03/10 07:48:15;;;;;;;14.77;7.13;;;;;;;;;;5061993;28;20488;-51
2023/03/10 07:50:40;;;;;;;12.15;7.35;;;;;;;;;;5062709;28;20035;-47
2023/03/10 07:53:05;;;;;;;11.52;6.72;;;;;;;;;;5055613;28;20024;-47
2023/03/10 07:55:31;;;;;;;23.23;8.60;;;;;;;;;;5057424;28;20217;-50
2023/03/10 07:57:58;;;;;;;14.10;7.82;;;;;;;;;;5054567;28;20024;-49
2023/03/10 08:00:23;;;;;;;18.55;8.23;;;;;;;;;;5058317;28;20115;-50
2023/03/10 08:02:49;;;;;;;17.05;8.50;;;;;;;;;;5055012;28;20119;-48
2023/03/10 08:05:15;;;;;;;15.52;7.35;;;;;;;;;;5056575;28;20517;-53
2023/03/10 08:07:41;;;;;;;14.40;7.22;;;;;;;;;;5060192;28;20024;-53
2023/03/10 08:10:06;;;;;;;12.52;6.90;;;;;;;;;;5060352;28;21133;-49
2023/03/10 08:12:32;;;;;;;11.20;6.10;;;;;;;;;;5063073;28;20020;-49
2023/03/10 08:14:58;;;;;;;17.25;7.18;;;;;;;;;;5057159;28;20681;-52
2023/03/10 08:17:29;;;;;;;13.52;6.45;;;;;;;;;;5057349;28;20037;-49
2023/03/10 08:19:54;;;;;;;17.27;7.32;;;;;;;;;;5057409;28;20187;-50
2023/03/10 08:22:19;;;;;;;13.95;6.90;;;;;;;;;;5075863;28;20099;-51
2023/03/10 08:24:45;;;;;;;11.10;5.35;;;;;;;;;;5071222;28;20464;-49
2023/03/10 08:27:10;;;;;;;11.82;6.28;;;;;;;;;;5056662;28;20086;-51
2023/03/10 08:29:35;;;;;;;10.87;5.83;;;;;;;;;;5048046;28;20027;-48
2023/03/10 08:32:01;;;;;;;9.98;5.50;;;;;;;;;;5059145;28;20316;-49
2023/03/10 08:34:30;;;;;;;12.00;5.35;;;;;;;;;;5053395;28;20111;-48
2023/03/10 08:36:57;;;;;;;12.00;5.28;;;;;;;;;;5056063;28;20424;-50
2023/03/10 08:39:23;;;;;;;14.00;5.20;;;;;;;;;;5054293;28;20025;-49
2023/03/10 08:41:48;;;;;;;13.52;5.50;;;;;;;;;;5058512;28;20017;-50
2023/03/10 08:44:14;;;;;;;12.00;5.15;;;;;;;;;;5057825;28;20013;-48
2023/03/10 08:46:40;;;;;;;14.18;4.78;;;;;;;;;;5058679;28;20045;-47
2023/03/10 08:49:05;;;;;;;12.40;4.72;;;;;;;;;;5061147;28;20477;-50
2023/03/10 08:51:31;;;;;;;12.93;5.53;;;;;;;;;;5066380;28;20032;-49
2023/03/10 08:53:56;;;;;;;11.15;5.13;;;;;;;;;;5063147;28;20032;-49
2023/03/10 08:56:22;;;;;;;8.75;4.20;;;;;;;;;;5062833;28;20447;-50
2023/03/10 08:58:47;;;;;;;10.05;4.88;;;;;;;;;;5057365;28;20032;-51
2023/03/10 09:01:14;;;;;;;12.48;5.38;;;;;;;;;;5062891;28;20440;-52
2023/03/10 09:03:40;;;;;;;9.45;5.15;;;;;;;;;;5073921;28;20025;-49
2023/03/10 09:06:06;;;;;;;9.10;4.10;;;;;;;;;;5064112;28;20491;-51
2023/03/10 09:08:31;;;;;;;13.45;4.88;;;;;;;;;;5052525;28;20029;-51
2023/03/10 09:10:56;;;;;;;14.15;5.30;;;;;;;;;;5061545;28;20111;-51
2023/03/10 09:13:22;;;;;;;9.85;4.32;;;;;;;;;;5062627;28;20059;-48
2023/03/10 09:15:49;;;;;;;10.65;4.88;;;;;;;;;;5056132;28;20048;-50
2023/03/10 09:18:14;;;;;;;9.68;4.55;;;;;;;;;;5060789;28;20029;-50
2023/03/10 09:20:40;;;;;;;16.42;6.50;;;;;;;;;;5062894;28;20099;-51
2023/03/10 09:23:06;;;;;;;16.42;6.82;;;;;;;;;;5063293;28;20024;-49
2023/03/10 09:25:31;;;;;;;13.77;5.40;;;;;;;;;;5060148;28;20028;-48
2023/03/10 09:27:57;;;;;;;10.82;5.47;;;;;;;;;;5067142;28;20491;-48
2023/03/10 09:30:22;;;;;;;34.35;10.35;;;;;;;;;;5066333;28;20041;-52
2023/03/10 09:32:47;;;;;;;23.98;9.23;;;;;;;;;;5067911;28;20028;-51
2023/03/10 09:35:12;;;;;;;21.27;8.60;;;;;;;;;;5059443;28;20024;-49
2023/03/10 09:37:38;;;;;;;24.38;9.43;;;;;;;;;;5061224;28;20020;-48
2023/03/10 09:40:04;;;;;;;26.63;12.05;;;;;;;;;;5083993;28;20035;-51
2023/03/10 09:42:37;;;;;;;32.67;16.08;;;;;;;;;;5068528;28;20365;-52
2023/03/10 09:45:21;;;;;;;19.67;7.68;;;;;;;;;;5063865;28;20110;-48
2023/03/10 09:47:53;;;;;;;14.85;7.32;;;;;;;;;;5065096;28;20032;-50
2023/03/10 09:50:37;;;;;;;14.38;6.55;;;;;;;;;;5067993;28;20033;-51
2023/03/10 09:53:26;;;;;;;14.77;7.28;;;;;;;;;;5062117;28;20020;-52
2023/03/10 09:55:52;;;;;;;14.82;6.50;;;;;;;;;;5063453;28;20416;-51
2023/03/10 09:58:17;;;;;;;20.23;9.95;;;;;;;;;;5065296;28;20046;-50
2023/03/10 10:00:43;;;;;;;23.15;11.45;;;;;;;;;;5077919;28;20025;-51
2023/03/10 10:03:18;;;;;;;21.23;9.20;;;;;;;;;;5063515;28;20025;-52
2023/03/10 10:05:44;;;;;;;18.27;7.75;;;;;;;;;;5053805;28;20783;-51
2023/03/10 10:08:19;;;;;;;13.93;6.70;;;;;;;;;;5061851;28;20033;-51
2023/03/10 10:10:47;;;;;;;17.55;7.97;;;;;;;;;;5065231;28;20017;-49
2023/03/10 10:13:13;;;;;;;11.93;5.95;;;;;;;;;;5062916;28;20114;-49
2023/03/10 10:15:40;;;;;;;16.80;5.82;;;;;;;;;;5058131;28;20437;-50
2023/03/10 10:18:13;;;;;;;13.55;6.38;;;;;;;;;;5049354;28;20060;-52
2023/03/10 10:20:41;;;;;;;18.45;7.25;;;;;;;;;;5064063;28;20020;-52
2023/03/10 10:23:23;;;;;;;13.70;7.80;;;;;;;;;;5055327;28;20119;-50
2023/03/10 10:25:48;;;;;;;16.40;8.50;;;;;;;;;;5093000;27;20106;-50
2023/03/10 10:28:34;;;;;;;18.23;8.00;;;;;;;;;;5050621;28;20532;-51
2023/03/10 10:31:08;;;;;;;16.42;7.47;;;;;;;;;;5050357;28;20609;-48
2023/03/10 10:33:49;;;;;;;14.88;7.03;;;;;;;;;;5045906;28;20487;-50
2023/03/10 10:36:15;;;;;;;15.10;6.35;;;;;;;;;;5045742;28;20060;-51
2023/03/10 10:38:46;;;;;;;14.25;7.38;;;;;;;;;;5048190;28;20021;-48
2023/03/10 10:41:20;;;;;;;13.82;6.82;;;;;;;;;;5055900;28;20077;-52
2023/03/10 10:43:46;;;;;;;12.48;5.57;;;;;;;;;;5052312;28;20114;-51
2023/03/10 10:46:13;;;;;;;17.02;7.28;;;;;;;;;;5055694;28;20051;-50
2023/03/10 10:48:38;;;;;;;10.65;6.00;;;;;;;;;;5045384;28;20029;-48
2023/03/10 10:51:04;;;;;;;12.65;6.43;;;;;;;;;;5045122;28;20461;-48
2023/03/10 10:53:33;;;;;;;14.95;6.22;;;;;;;;;;5049161;28;20094;-45
2023/03/10 10:56:00;;;;;;;10.10;5.93;;;;;;;;;;5052958;28;20024;-52
2023/03/10 10:58:33;;;;;;;15.63;6.40;;;;;;;;;;5053901;28;20033;-49
2023/03/10 11:01:00;;;;;;;17.60;7.00;;;;;;;;;;5045401;28;20024;-51
2023/03/10 11:03:28;;;;;;;11.20;6.05;;;;;;;;;;5045858;28;20025;-50
2023/03/10 11:05:53;;;;;;;15.15;6.93;;;;;;;;;;5049129;28;20021;-50
2023/03/10 11:08:27;;;;;;;13.18;6.10;;;;;;;;;;5045018;28;20036;-50
2023/03/10 11:10:58;;;;;;;10.07;5.20;;;;;;;;;;5054911;28;20028;-50
2023/03/10 11:13:42;;;;;;;13.77;5.10;;;;;;;;;;5053882;28;20032;-51
2023/03/10 11:16:14;;;;;;;8.27;4.03;;;;;;;;;;5059399;28;20032;-51
2023/03/10 11:18:43;;;;;;;10.77;3.63;;;;;;;;;;5057212;28;20074;-49
2023/03/10 11:21:13;;;;;;;11.80;4.38;;;;;;;;;;5048009;28;20024;-50
2023/03/10 11:23:48;;;;;;;16.63;6.20;;;;;;;;;;5047356;28;20029;-49
2023/03/10 11:26:31;;;;;;;14.20;4.93;;;;;;;;;;5064429;28;20324;-48
2023/03/10 11:29:06;;;;;;;9.13;3.47;;;;;;;;;;5064480;28;20107;-52
2023/03/10 11:31:41;;;;;;;9.70;4.32;;;;;;;;;;5060901;28;20039;-49
2023/03/10 11:34:22;;;;;;;8.73;4.45;;;;;;;;;;5055616;28;20035;-51
2023/03/10 11:36:59;;;;;;;10.25;4.57;;;;;;;;;;5041468;28;20052;-49
2023/03/10 11:39:44;;;;;;;13.10;4.72;;;;;;;;;;5060321;28;20660;-50
2023/03/10 11:42:09;;;;;;;13.65;5.60;;;;;;;;;;5064296;28;20020;-48
2023/03/10 11:44:45;;;;;;;8.57;4.32;;;;;;;;;;5056704;28;20494;-49
2023/03/10 11:47:29;;;;;;;14.52;5.47;;;;;;;;;;5059825;28;20028;-51
2023/03/10 11:50:15;;;;;;;11.15;5.03;;;;;;;;;;5061157;28;20107;-46
2023/03/10 11:52:41;;;;;;;13.70;5.47;;;;;;;;;;5058351;28;20119;-48
2023/03/10 11:55:11;;;;;;;12.13;4.93;;;;;;;;;;5056081;28;20120;-52
2023/03/10 11:57:40;;;;;;;12.30;5.75;;;;;;;;;;5055086;28;20032;-50
2023/03/10 12:00:06;;;;;;;;;;;;;;;;;;5058285;28;20047;-50
2023/03/10 12:02:41;;;;;;;12.30;5.00;;;;;;;;;;5060410;28;19912;-50
2023/03/10 12:05:13;;;;;;;14.07;4.20;;;;;;;;;;5062483;28;20027;-51
2023/03/10 12:07:40;;;;;;;8.68;4.55;;;;;;;;;;5064540;28;20099;-52
2023/03/10 12:10:11;;;;;;;10.07;4.32;;;;;;;;;;5065405;28;20081;-53
2023/03/10 12:12:38;;;;;;;12.90;5.03;;;;;;;;;;5064747;28;20061;-54
2023/03/10 12:15:18;;;;;;;17.80;5.47;;;;;;;;;;5053867;28;20024;-51
2023/03/10 12:17:44;;;;;;;12.98;5.00;;;;;;;;;;5055743;28;20032;-51
2023/03/10 12:20:11;;;;;;;14.98;4.50;;;;;;;;;;5060839;28;20079;-53
2023/03/10 12:22:39;;;;;;;10.80;4.63;;;;;;;;;;5060404;28;20032;-53
2023/03/10 12:25:25;;;;;;;8.10;4.13;;;;;;;;;;5065473;28;20056;-49
2023/03/10 12:28:09;;;;;;;9.05;4.32;;;;;;;;;;5042332;28;20028;-51
2023/03/10 12:30:51;;;;;;;34.53;31.15;;;;;;;;;;5045286;28;20064;-51
2023/03/10 12:33:38;;;;;;;27.00;8.70;;;;;;;;;;5043007;28;20036;-53
2023/03/10 12:36:15;;;;;;;8.85;3.42;;;;;;;;;;5039697;28;20485;-49
2023/03/10 12:38:56;;;;;;;10.68;3.22;;;;;;;;;;5039822;28;20037;-49
2023/03/10 12:41:24;;;;;;;10.88;4.28;;;;;;;;;;5042453;28;20362;-49
2023/03/10 12:43:54;;;;;;;17.55;4.50;;;;;;;;;;5038407;28;20021;-51
2023/03/10 12:46:40;;;;;;;7.97;3.95;;;;;;;;;;5042464;28;20131;-51
2023/03/10 12:49:13;;;;;;;9.30;3.55;;;;;;;;;;5035303;28;20041;-48
2023/03/10 12:51:40;;;;;;;15.40;4.55;;;;;;;;;;5038301;28;20183;-50
2023/03/10 12:54:24;;;;;;;7.88;2.60;;;;;;;;;;5040180;28;20028;-49
2023/03/10 12:57:03;;;;;;;7.35;2.92;;;;;;;;;;5044232;28;20123;-49
2023/03/10 12:59:39;;;;;;;4.80;2.87;;;;;;;;;;5044081;28;20707;-49
2023/03/10 13:02:10;;;;;;;6.60;2.97;;;;;;;;;;5044226;28;20048;-48
2023/03/10 13:04:35;;;;;;;8.68;2.90;;;;;;;;;;5048769;28;20068;-49
2023/03/10 13:07:02;;;;;;;9.48;2.92;;;;;;;;;;5061926;28;20055;-50
2023/03/10 13:09:30;;;;;;;4.82;2.50;;;;;;;;;;5045717;28;20103;-49
2023/03/10 13:11:58;;;;;;;5.05;2.30;;;;;;;;;;5061225;28;20024;-48
2023/03/10 13:14:32;;;;;;;4.90;2.33;;;;;;;;;;5067188;28;20325;-47
2023/03/10 13:16:59;;;;;;;9.88;2.78;;;;;;;;;;5066704;28;20054;-49
2023/03/10 13:19:26;;;;;;;6.70;2.58;;;;;;;;;;5066020;28;20499;-47
2023/03/10 13:21:51;;;;;;;9.27;2.90;;;;;;;;;;5064075;28;20039;-50
2023/03/10 13:24:27;;;;;;;7.63;3.03;;;;;;;;;;5063979;28;20120;-50
2023/03/10 13:27:05;;;;;;;9.82;3.70;;;;;;;;;;5056777;28;20120;-47
2023/03/10 13:29:30;;;;;;;8.45;3.08;;;;;;;;;;5056586;28;20176;-50
2023/03/10 13:31:55;;;;;;;6.22;2.13;;;;;;;;;;5063222;28;20025;-48
2023/03/10 13:34:22;;;;;;;7.05;1.80;;;;;;;;;;5060471;28;20043;-51
2023/03/10 13:36:48;;;;;;;3.40;1.70;;;;;;;;;;5047556;28;20025;-52
2023/03/10 13:39:21;;;;;;;5.07;2.03;;;;;;;;;;5062332;28;20084;-52
2023/03/10 13:41:47;;;;;;;5.88;1.70;;;;;;;;;;5058052;28;20108;-53
2023/03/10 13:44:16;;;;;;;4.88;1.42;;;;;;;;;;5062995;28;20093;-52
2023/03/10 13:46:45;;;;;;;3.80;1.73;;;;;;;;;;5063652;28;20147;-52
2023/03/10 13:49:10;;;;;;;;;;;;;;;;;;5060119;28;20047;-50
2023/03/10 13:51:36;;;;;;;2.20;1.57;;;;;;;;;;5052030;28;19944;-53
2023/03/10 13:54:20;;;;;;;8.75;2.55;;;;;;;;;;5055271;28;20036;-52
2023/03/10 13:56:46;;;;;;;2.33;1.65;;;;;;;;;;5062167;28;20024;-53
2023/03/10 13:59:16;;;;;;;3.20;1.65;;;;;;;;;;5058196;28;20028;-52
2023/03/10 14:01:49;;;;;;;6.57;2.13;;;;;;;;;;5061646;28;20024;-49
2023/03/10 14:04:16;;;;;;;3.63;2.22;;;;;;;;;;5059163;28;20067;-53
2023/03/10 14:06:42;;;;;;;13.05;2.65;;;;;;;;;;5051840;28;20446;-51
2023/03/10 14:09:11;;;;;;;4.22;1.85;;;;;;;;;;5048754;28;20024;-52
2023/03/10 14:11:40;;;;;;;4.03;1.90;;;;;;;;;;5050416;28;20051;-48
2023/03/10 14:14:06;;;;;;;5.82;2.83;;;;;;;;;;5057135;28;20028;-48
2023/03/10 14:16:44;;;;;;;10.13;4.38;;;;;;;;;;5059720;28;20033;-49
2023/03/10 14:19:10;;;;;;;4.38;1.80;;;;;;;;;;5060187;28;20112;-50
2023/03/10 14:21:35;;;;;;;4.55;2.25;;;;;;;;;;5062538;28;20158;-55
2023/03/10 14:24:04;;;;;;;3.95;2.30;;;;;;;;;;5063040;28;20560;-50
2023/03/10 14:26:29;;;;;;;5.18;2.67;;;;;;;;;;5060169;28;20032;-48
2023/03/10 14:28:55;;;;;;;6.25;2.40;;;;;;;;;;5058099;28;20161;-49
2023/03/10 14:31:21;;;;;;;11.18;3.00;;;;;;;;;;5055546;28;20115;-47